Time;durP1;ratioP1;P1;durP2;ratioP2;P2;SDS_P1;SDS_P2;PMS_P1;PMS_P2;Temp;Humidity;BMP_temperature;BMP_pressure;BME280_temperature;BME280_humidity;BME280_pressure;Samples;Min_cycle;Max_cycle;Signal;HPM_P1;HPM_P2
2021/08/10 00:00:38;;;;;;;2.13;1.75;;;;;;;13.62;95.59;98999.97;5063801;28;20079;-67
2021/08/10 00:03:04;;;;;;;13.30;1.58;;;;;;;13.63;93.94;99001.72;5065505;28;20021;-67
2021/08/10 00:05:29;;;;;;;6.43;1.88;;;;;;;13.65;93.69;98994.63;5065560;28;20067;-67
2021/08/10 00:07:55;;;;;;;5.85;2.47;;;;;;;13.66;94.14;99001.63;5066069;28;20138;-67
2021/08/10 00:10:21;;;;;;;9.20;2.30;;;;;;;13.54;93.81;99001.97;5065965;28;20029;-67
2021/08/10 00:12:46;;;;;;;7.28;2.47;;;;;;;13.49;94.92;98993.25;5064840;28;20335;-67
2021/08/10 00:15:12;;;;;;;8.45;2.28;;;;;;;13.55;95.08;98995.75;5064766;28;20021;-67
2021/08/10 00:17:38;;;;;;;2.83;1.60;;;;;;;13.73;95.23;99034.97;5051401;28;20201;-67
2021/08/10 00:20:05;;;;;;;3.22;1.90;;;;;;;13.87;95.47;99022.25;5044699;28;20017;-67
2021/08/10 00:22:30;;;;;;;4.95;2.00;;;;;;;13.96;95.39;99011.44;5045746;28;20088;-67
2021/08/10 00:24:56;;;;;;;3.38;2.05;;;;;;;14.01;94.88;99006.84;5045750;28;20028;-67
2021/08/10 00:27:22;;;;;;;4.03;1.98;;;;;;;14.07;95.00;99004.06;5045746;28;20021;-67
2021/08/10 00:29:47;;;;;;;8.82;3.60;;;;;;;14.11;94.98;99003.06;5044448;28;20101;-67
2021/08/10 00:32:13;;;;;;;2.60;1.83;;;;;;;14.16;94.74;99014.38;5045594;28;20021;-66
2021/08/10 00:34:38;;;;;;;3.08;1.60;;;;;;;14.09;94.21;99007.53;5045564;28;20017;-66
2021/08/10 00:37:08;;;;;;;2.95;1.70;;;;;;;13.98;94.27;98999.03;5055299;28;20070;-66
2021/08/10 00:39:34;;;;;;;3.22;1.77;;;;;;;14.04;94.41;99004.13;5064298;28;20021;-66
2021/08/10 00:42:00;;;;;;;3.75;1.45;;;;;;;14.11;94.29;98995.13;5065411;28;20346;-66
2021/08/10 00:44:26;;;;;;;5.05;1.85;;;;;;;14.01;93.93;98993.63;5065354;28;20042;-66
2021/08/10 00:46:52;;;;;;;4.55;2.10;;;;;;;13.90;94.71;98985.13;5065320;28;20024;-66
2021/08/10 00:49:17;;;;;;;3.15;1.60;;;;;;;13.99;94.73;98990.19;5065264;28;20261;-66
2021/08/10 00:51:43;;;;;;;5.60;1.80;;;;;;;13.93;94.19;98979.75;5065177;28;20092;-66
2021/08/10 00:54:08;;;;;;;6.32;2.25;;;;;;;13.78;94.46;98982.81;5064024;28;20052;-66
2021/08/10 00:56:35;;;;;;;6.05;2.30;;;;;;;13.78;94.79;98985.44;5065134;28;20021;-66
2021/08/10 00:59:01;;;;;;;3.05;1.90;;;;;;;13.88;94.78;99008.97;5063372;28;20021;-66
2021/08/10 01:01:26;;;;;;;8.15;2.10;;;;;;;13.86;94.93;99015.22;5064875;28;20063;-66
2021/08/10 01:03:52;;;;;;;5.20;2.08;;;;;;;13.77;94.76;98984.59;5065062;28;20021;-66
2021/08/10 01:06:32;;;;;;;6.05;2.17;;;;;;;13.74;95.26;98989.97;5064897;28;20021;-66
2021/08/10 01:09:08;;;;;;;3.20;2.05;;;;;;;13.71;94.92;98984.75;5064811;28;20088;-66
2021/08/10 01:11:47;;;;;;;10.25;2.10;;;;;;;13.70;94.94;99029.78;5064852;28;20059;-66
2021/08/10 01:14:38;;;;;;;5.20;1.98;;;;;;;13.68;94.97;99052.72;5064598;28;20055;-66
2021/08/10 01:17:13;;;;;;;5.00;2.00;;;;;;;13.73;94.59;99069.38;5044978;28;20018;-66
2021/08/10 01:19:44;;;;;;;6.15;1.67;;;;;;;13.78;94.68;99070.09;5044726;28;20026;-66
2021/08/10 01:22:14;;;;;;;5.00;1.95;;;;;;;13.71;94.59;99089.69;5044683;28;20021;-66
2021/08/10 01:24:45;;;;;;;3.42;2.05;;;;;;;13.65;94.32;99090.72;5044638;28;20031;-66
2021/08/10 01:27:19;;;;;;;2.83;2.03;;;;;;;13.46;94.39;99101.75;5043445;28;20056;-66
2021/08/10 01:30:15;;;;;;;3.30;1.48;;;;;;;13.54;94.23;99113.03;5044516;28;20341;-66
2021/08/10 01:32:44;;;;;;;2.25;1.27;;;;;;;13.52;94.18;99121.00;5043355;28;20022;-66
2021/08/10 01:35:11;;;;;;;3.95;1.40;;;;;;;13.43;93.87;99121.22;5044398;28;20308;-66
2021/08/10 01:37:39;;;;;;;3.95;2.00;;;;;;;13.52;94.13;99130.72;5054437;28;20301;-66
2021/08/10 01:40:08;;;;;;;6.65;1.70;;;;;;;13.36;93.98;99124.91;5064307;28;20020;-66
2021/08/10 01:42:37;;;;;;;1.85;1.45;;;;;;;13.36;94.49;99135.50;5064271;28;20092;-66
2021/08/10 01:45:04;;;;;;;5.03;2.10;;;;;;;13.41;94.10;99151.25;5062583;28;20058;-66
2021/08/10 01:47:32;;;;;;;3.35;1.80;;;;;;;13.23;93.98;99154.28;5061709;28;20055;-66
2021/08/10 01:50:00;;;;;;;2.55;1.60;;;;;;;13.24;95.03;99151.63;5044099;28;20030;-66
2021/08/10 01:52:26;;;;;;;5.88;1.17;;;;;;;13.21;95.10;99172.81;5043031;28;20053;-66
2021/08/10 01:54:53;;;;;;;4.05;1.35;;;;;;;13.16;94.85;99171.19;5044112;28;20025;-66
2021/08/10 01:57:19;;;;;;;2.35;1.15;;;;;;;12.98;94.22;99167.97;5045680;28;20197;-66
2021/08/10 01:59:48;;;;;;;2.90;1.35;;;;;;;13.02;94.79;99177.63;5064173;28;20024;-66
2021/08/10 02:02:14;;;;;;;6.15;1.50;;;;;;;12.98;94.70;99185.63;5063868;28;20340;-66
2021/08/10 02:04:41;;;;;;;8.93;1.38;;;;;;;12.89;94.42;99191.97;5063983;28;20028;-66
2021/08/10 02:07:07;;;;;;;14.30;1.90;;;;;;;12.99;94.76;99198.84;5063963;28;20048;-66
2021/08/10 02:09:34;;;;;;;13.00;1.80;;;;;;;12.96;94.91;99220.00;5063854;28;20035;-66
2021/08/10 02:12:01;;;;;;;3.45;1.58;;;;;;;12.95;94.79;99227.97;5063398;28;20024;-66
2021/08/10 02:14:28;;;;;;;8.25;1.80;;;;;;;12.91;94.98;99221.84;5062704;28;20212;-66
2021/08/10 02:16:57;;;;;;;10.02;1.60;;;;;;;12.77;94.63;99234.47;5063235;28;20088;-66
2021/08/10 02:19:23;;;;;;;0.88;0.82;;;;;;;12.76;94.80;99245.91;5043781;28;20013;-66
2021/08/10 02:22:05;;;;;;;2.13;1.10;;;;;;;12.83;94.36;99239.63;5043836;28;20025;-66
2021/08/10 02:25:05;;;;;;;3.47;1.27;;;;;;;12.87;94.32;99251.00;5043820;28;20316;-66
2021/08/10 02:27:40;;;;;;;4.03;1.23;;;;;;;12.80;94.49;99247.63;5058908;28;20025;-66
2021/08/10 02:30:09;;;;;;;2.28;1.35;;;;;;;12.79;94.66;99259.06;5044168;28;20018;-66
2021/08/10 02:32:37;;;;;;;15.50;2.95;;;;;;;12.81;94.59;99241.44;5043757;28;20208;-66
2021/08/10 02:35:04;;;;;;;14.20;1.70;;;;;;;12.83;94.52;99281.03;5043762;28;20317;-66
2021/08/10 02:37:32;;;;;;;7.32;1.70;;;;;;;12.84;94.76;99266.91;5043859;28;20017;-66
2021/08/10 02:40:01;;;;;;;6.55;1.50;;;;;;;12.84;94.84;99256.34;5043657;28;20025;-66
2021/08/10 02:42:27;;;;;;;2.67;1.30;;;;;;;12.79;94.11;99259.06;5043663;28;20044;-66
2021/08/10 02:44:56;;;;;;;3.47;1.25;;;;;;;12.65;93.81;99245.25;5043632;28;20258;-66
2021/08/10 02:47:23;;;;;;;6.03;1.67;;;;;;;12.59;94.40;99261.19;5043613;28;20062;-66
2021/08/10 02:49:49;;;;;;;2.58;1.10;;;;;;;12.51;93.88;99243.75;5043506;28;20030;-66
2021/08/10 02:52:14;;;;;;;2.40;1.50;;;;;;;12.50;94.50;99244.66;5043868;28;20032;-66
2021/08/10 02:54:41;;;;;;;2.63;1.35;;;;;;;12.57;94.34;99246.28;5043514;28;20194;-66
2021/08/10 02:57:14;;;;;;;3.50;1.33;;;;;;;12.63;94.25;99262.03;5043887;28;20240;-66
2021/08/10 03:00:05;;;;;;;4.32;1.42;;;;;;;12.56;94.14;99270.97;5043681;28;20190;-66
2021/08/10 03:02:37;;;;;;;1.42;1.27;;;;;;;12.57;94.61;99272.69;5045260;28;20041;-66
2021/08/10 03:05:07;;;;;;;;;;;;;;;12.62;94.47;99337.72;5043983;28;20021;-66
2021/08/10 03:07:33;;;;;;;2.92;1.45;;;;;;;12.53;94.21;99295.63;5043419;28;19905;-66
2021/08/10 03:10:02;;;;;;;3.70;1.70;;;;;;;12.52;94.34;99317.66;5043302;28;20017;-66
2021/08/10 03:12:32;;;;;;;16.85;1.50;;;;;;;12.54;94.05;99334.38;5043332;28;20260;-66
2021/08/10 03:14:58;;;;;;;3.80;1.20;;;;;;;12.47;94.09;99334.47;5043347;28;20024;-66
2021/08/10 03:17:26;;;;;;;4.25;1.58;;;;;;;12.38;94.06;99343.41;5042193;28;20021;-66
2021/08/10 03:19:54;;;;;;;9.90;1.48;;;;;;;12.33;94.68;99358.44;5049912;28;20350;-66
2021/08/10 03:22:21;;;;;;;12.65;1.60;;;;;;;12.42;94.61;99353.03;5063217;28;20074;-66
2021/08/10 03:24:49;;;;;;;4.90;1.38;;;;;;;12.45;94.65;99362.66;5065902;28;20024;-66
2021/08/10 03:27:15;;;;;;;1.63;1.30;;;;;;;12.39;94.38;99371.56;5066522;28;20036;-66
2021/08/10 03:29:41;;;;;;;5.65;1.38;;;;;;;12.39;94.80;99378.59;5046730;28;20052;-66
2021/08/10 03:32:07;;;;;;;1.98;1.30;;;;;;;12.51;94.43;99439.16;5046781;28;20025;-66
2021/08/10 03:34:34;;;;;;;3.42;1.08;;;;;;;12.54;93.89;99416.22;5046684;28;20044;-66
2021/08/10 03:37:00;;;;;;;8.57;1.67;;;;;;;12.51;93.69;99675.06;5046692;28;20027;-66
2021/08/10 03:39:27;;;;;;;3.97;1.63;;;;;;;12.45;94.29;99473.56;5046637;28;20017;-66
2021/08/10 03:41:54;;;;;;;1.98;1.40;;;;;;;12.48;94.32;99432.16;5046566;28;20021;-66
2021/08/10 03:44:20;;;;;;;6.57;1.85;;;;;;;12.51;94.43;99426.81;5058024;28;20100;-66
2021/08/10 03:46:48;;;;;;;1.85;1.42;;;;;;;12.46;94.18;99470.91;5066478;28;20089;-66
2021/08/10 03:49:19;;;;;;;2.58;1.30;;;;;;;12.41;93.79;99456.88;5066353;28;20027;-66
2021/08/10 03:51:45;;;;;;;3.67;1.85;;;;;;;12.37;94.30;99415.56;5066415;28;20028;-66
2021/08/10 03:54:10;;;;;;;9.77;1.85;;;;;;;12.32;94.24;99406.88;5066336;28;20029;-66
2021/08/10 03:56:38;;;;;;;1.95;1.67;;;;;;;12.35;94.06;99398.91;5066291;28;20339;-66
2021/08/10 03:59:03;;;;;;;5.80;1.77;;;;;;;12.42;94.09;99405.84;5064746;28;20017;-66
2021/08/10 04:01:32;;;;;;;6.95;1.50;;;;;;;12.40;94.15;99391.78;5054503;28;20095;-66
2021/08/10 04:03:58;;;;;;;3.13;1.38;;;;;;;12.39;94.40;99405.88;5046132;28;20052;-66
2021/08/10 04:06:25;;;;;;;2.55;1.20;;;;;;;12.38;93.37;99414.69;5046160;28;20278;-66
2021/08/10 04:08:51;;;;;;;2.28;1.40;;;;;;;12.23;93.30;99420.19;5048448;28;20022;-66
2021/08/10 04:11:20;;;;;;;3.53;1.30;;;;;;;12.17;93.90;99383.31;5065993;28;20031;-66
2021/08/10 04:13:46;;;;;;;1.50;1.15;;;;;;;12.30;93.91;99453.50;5066548;28;20216;-66
2021/08/10 04:16:15;;;;;;;1.95;1.38;;;;;;;12.21;93.94;99450.13;5064519;28;20267;-66
2021/08/10 04:18:41;;;;;;;2.25;1.25;;;;;;;12.14;94.13;99478.34;5065885;28;20025;-66
2021/08/10 04:21:06;;;;;;;4.70;1.25;;;;;;;12.09;94.06;99477.53;5065827;28;20090;-66
2021/08/10 04:23:32;;;;;;;1.60;1.10;;;;;;;12.18;94.11;99493.25;5065832;28;20391;-66
2021/08/10 04:25:57;;;;;;;1.63;1.45;;;;;;;12.15;94.14;99498.56;5065742;28;20025;-66
2021/08/10 04:28:23;;;;;;;3.42;1.27;;;;;;;12.11;93.97;99515.34;5065697;28;20032;-66
2021/08/10 04:30:48;;;;;;;4.85;1.13;;;;;;;12.15;94.25;99527.59;5065613;28;20296;-66
2021/08/10 04:33:14;;;;;;;3.30;1.10;;;;;;;12.25;94.06;99518.69;5064470;28;20078;-66
2021/08/10 04:35:40;;;;;;;6.00;1.63;;;;;;;12.23;94.51;99560.06;5065160;28;20324;-66
2021/08/10 04:38:05;;;;;;;5.07;1.95;;;;;;;12.22;93.97;99560.09;5064352;28;20025;-66
2021/08/10 04:40:31;;;;;;;6.85;1.50;;;;;;;12.27;93.95;99534.50;5065465;28;20041;-66
2021/08/10 04:42:58;;;;;;;6.07;1.48;;;;;;;12.24;93.82;99551.25;5065410;28;20078;-66
2021/08/10 04:45:24;;;;;;;5.03;1.42;;;;;;;12.25;94.03;99576.75;5065371;28;20070;-66
2021/08/10 04:47:49;;;;;;;2.58;1.40;;;;;;;12.37;94.25;99592.47;5065375;28;20025;-66
2021/08/10 04:50:15;;;;;;;2.72;1.30;;;;;;;12.42;93.98;99573.94;5065201;28;20119;-66
2021/08/10 04:52:40;;;;;;;2.08;1.20;;;;;;;12.44;93.68;99593.28;5065220;28;20220;-66
2021/08/10 04:55:07;;;;;;;2.13;1.65;;;;;;;12.45;93.74;99606.47;5064007;28;20266;-66
2021/08/10 04:57:33;;;;;;;2.72;1.30;;;;;;;12.53;93.98;99623.06;5065082;28;20083;-66
2021/08/10 04:59:58;;;;;;;3.40;1.20;;;;;;;12.55;93.52;99623.94;5064903;28;20016;-66
2021/08/10 05:02:24;;;;;;;2.88;1.30;;;;;;;12.56;93.65;99615.13;5064976;28;20021;-66
2021/08/10 05:04:49;;;;;;;1.20;1.00;;;;;;;12.61;93.95;99613.31;5063862;28;20092;-66
2021/08/10 05:07:15;;;;;;;2.63;0.90;;;;;;;12.72;94.17;99618.47;5064931;28;20096;-66
2021/08/10 05:09:43;;;;;;;1.67;1.30;;;;;;;12.82;93.73;99631.53;5063670;28;20062;-66
2021/08/10 05:12:09;;;;;;;2.45;1.30;;;;;;;12.82;93.55;99602.47;5064817;28;20228;-66
2021/08/10 05:14:35;;;;;;;7.15;1.60;;;;;;;12.83;94.09;99583.09;5064827;28;20059;-66
2021/08/10 05:17:01;;;;;;;4.15;1.42;;;;;;;12.90;94.14;99615.56;5063570;28;20316;-66
2021/08/10 05:19:26;;;;;;;3.25;1.67;;;;;;;13.02;93.39;99616.34;5064715;28;20054;-66
2021/08/10 05:21:51;;;;;;;6.13;1.73;;;;;;;13.13;93.36;99616.16;5064666;28;20055;-66
2021/08/10 05:24:17;;;;;;;2.55;1.60;;;;;;;13.17;93.50;99609.06;5064697;28;20205;-67
2021/08/10 05:26:42;;;;;;;8.13;1.75;;;;;;;13.28;93.26;99608.03;5063419;28;20025;-67
2021/08/10 05:29:08;;;;;;;6.13;2.15;;;;;;;13.44;92.96;99635.13;5064439;28;20062;-67
2021/08/10 05:31:33;;;;;;;6.10;1.70;;;;;;;13.71;93.08;99650.56;5064484;28;20190;-67
2021/08/10 05:33:59;;;;;;;3.42;1.35;;;;;;;13.84;92.73;99710.34;5064437;28;20328;-67
2021/08/10 05:36:24;;;;;;;3.90;1.27;;;;;;;14.33;91.91;99642.47;5064390;28;20017;-67
2021/08/10 05:38:53;;;;;;;2.33;1.30;;;;;;;14.80;90.33;99618.56;5064362;28;20027;-67
2021/08/10 05:41:18;;;;;;;6.65;2.00;;;;;;;15.02;89.37;99585.38;5064319;28;20059;-67
2021/08/10 05:43:44;;;;;;;3.58;1.90;;;;;;;15.50;88.51;99592.25;5064291;28;20021;-67
2021/08/10 05:46:10;;;;;;;3.10;1.20;;;;;;;15.72;87.35;99566.94;5063580;28;20021;-67
2021/08/10 05:48:35;;;;;;;3.75;1.00;;;;;;;15.55;86.20;99518.72;5064163;28;20024;-67
2021/08/10 05:51:03;;;;;;;1.98;1.30;;;;;;;15.51;86.23;99498.50;5064235;28;20027;-67
2021/08/10 05:53:30;;;;;;;6.00;1.50;;;;;;;16.29;84.05;99501.66;5064172;28;20363;-67
2021/08/10 05:55:56;;;;;;;4.43;1.23;;;;;;;16.49;83.21;99507.28;5064073;28;20088;-67
2021/08/10 05:58:21;;;;;;;2.13;1.20;;;;;;;16.81;82.36;99512.50;5064088;28;20021;-67
2021/08/10 06:00:47;;;;;;;4.95;1.30;;;;;;;16.68;83.53;99494.34;5063890;28;20037;-67
2021/08/10 06:03:12;;;;;;;4.85;1.35;;;;;;;16.10;84.19;99457.06;5063951;28;20032;-67
2021/08/10 06:05:38;;;;;;;7.50;1.50;;;;;;;15.74;86.49;99442.13;5063976;28;20078;-67
2021/08/10 06:08:03;;;;;;;4.85;1.73;;;;;;;15.74;87.02;99453.63;5062761;28;20047;-66
2021/08/10 06:10:28;;;;;;;10.80;2.50;;;;;;;15.55;87.93;99443.53;5063812;28;20035;-66
2021/08/10 06:12:54;;;;;;;5.03;1.98;;;;;;;15.88;88.86;99458.59;5063955;28;20044;-66
2021/08/10 06:15:19;;;;;;;3.65;1.55;;;;;;;16.08;88.68;99449.16;5063865;28;20027;-67
2021/08/10 06:17:45;;;;;;;5.97;2.75;;;;;;;17.10;86.02;99459.31;5063839;28;20027;-67
2021/08/10 06:20:11;;;;;;;7.72;2.17;;;;;;;17.40;83.66;99433.44;5063804;28;20225;-67
2021/08/10 06:22:36;;;;;;;3.72;2.17;;;;;;;18.21;82.16;99451.84;5063712;28;20032;-67
2021/08/10 06:25:02;;;;;;;7.53;2.45;;;;;;;18.80;80.31;99452.28;5063787;28;20025;-67
2021/08/10 06:27:27;;;;;;;6.60;2.20;;;;;;;19.25;78.11;99445.97;5063797;28;20320;-67
2021/08/10 06:29:53;;;;;;;8.65;2.10;;;;;;;20.25;73.85;99453.19;5063718;28;20070;-67
2021/08/10 06:32:18;;;;;;;6.07;2.65;;;;;;;19.87;77.24;99429.94;5063727;28;20028;-67
2021/08/10 06:34:43;;;;;;;4.82;2.17;;;;;;;19.45;79.95;99425.59;5063690;28;20021;-67
2021/08/10 06:37:09;;;;;;;5.60;1.98;;;;;;;19.46;80.55;99438.91;5063667;28;20025;-67
2021/08/10 06:39:34;;;;;;;5.50;2.10;;;;;;;19.27;81.77;99443.28;5063686;28;20320;-67
2021/08/10 06:42:00;;;;;;;5.30;2.58;;;;;;;19.10;82.37;99445.69;5063574;28;20021;-67
2021/08/10 06:44:25;;;;;;;6.70;2.10;;;;;;;19.17;82.37;99449.84;5063600;28;20028;-67
2021/08/10 06:46:51;;;;;;;9.00;2.55;;;;;;;19.32;83.17;99441.25;5063629;28;20219;-67
2021/08/10 06:49:16;;;;;;;10.15;2.58;;;;;;;20.05;81.14;99471.88;5062345;28;20025;-67
2021/08/10 06:51:42;;;;;;;9.55;2.92;;;;;;;21.26;75.61;99505.47;5063620;28;20040;-67
2021/08/10 06:54:07;;;;;;;7.88;2.47;;;;;;;20.64;77.16;99472.78;5063530;28;20194;-67
2021/08/10 06:56:32;;;;;;;6.93;2.78;;;;;;;20.15;78.66;99459.88;5063518;28;20025;-67
2021/08/10 06:58:58;;;;;;;20.20;3.33;;;;;;;20.65;77.62;99490.56;5066650;28;20232;-67
2021/08/10 07:01:23;;;;;;;9.43;2.25;;;;;;;21.42;73.30;99510.06;5067089;28;20399;-67
2021/08/10 07:03:49;;;;;;;4.35;2.20;;;;;;;20.73;75.03;99472.31;5067218;28;20024;-67
2021/08/10 07:06:14;;;;;;;5.85;2.55;;;;;;;20.21;77.01;99424.84;5067250;28;20052;-67
2021/08/10 07:08:39;;;;;;;8.40;2.50;;;;;;;20.09;77.97;99424.53;5067129;28;20024;-67
2021/08/10 07:11:05;;;;;;;6.40;3.08;;;;;;;20.86;76.08;99441.38;5067195;28;20025;-67
2021/08/10 07:13:30;;;;;;;7.47;2.30;;;;;;;20.98;74.26;99723.69;5067108;28;20048;-67
2021/08/10 07:15:56;;;;;;;11.75;2.55;;;;;;;20.94;74.52;99513.28;5067106;28;20021;-67
2021/08/10 07:18:21;;;;;;;7.70;2.53;;;;;;;20.72;74.37;99486.66;5067150;28;20240;-67
2021/08/10 07:20:47;;;;;;;7.63;2.33;;;;;;;20.49;78.08;99473.47;5066989;28;20017;-67
2021/08/10 07:23:12;;;;;;;7.75;2.60;;;;;;;20.26;77.15;99465.63;5066988;28;20332;-67
2021/08/10 07:25:37;;;;;;;4.38;2.40;;;;;;;20.54;75.73;99466.09;5066899;28;20092;-67
2021/08/10 07:28:03;;;;;;;7.22;2.35;;;;;;;20.84;74.20;99737.63;5066831;28;20016;-67
2021/08/10 07:30:29;;;;;;;8.35;2.70;;;;;;;20.81;75.97;99529.03;5066662;28;20096;-67
2021/08/10 07:32:54;;;;;;;5.18;2.28;;;;;;;20.61;78.59;99507.69;5066774;28;20088;-67
2021/08/10 07:35:20;;;;;;;9.23;2.42;;;;;;;20.65;75.21;99500.38;5066738;28;20017;-67
2021/08/10 07:37:45;;;;;;;6.07;2.22;;;;;;;20.46;77.23;99484.31;5066703;28;20013;-67
2021/08/10 07:40:12;;;;;;;4.90;2.30;;;;;;;20.15;79.44;99459.03;5066649;28;20020;-67
2021/08/10 07:42:38;;;;;;;7.40;2.75;;;;;;;20.24;79.47;99451.47;5066571;28;20045;-67
2021/08/10 07:45:05;;;;;;;5.90;2.53;;;;;;;20.48;79.64;99439.66;5066551;28;20032;-67
2021/08/10 07:47:31;;;;;;;6.88;2.35;;;;;;;20.80;77.73;99451.50;5066478;28;20021;-67
2021/08/10 07:49:57;;;;;;;8.63;2.63;;;;;;;20.74;73.98;99436.63;5066391;28;20046;-67
2021/08/10 07:52:22;;;;;;;6.78;2.42;;;;;;;20.52;76.58;99416.28;5066417;28;20316;-67
2021/08/10 07:54:48;;;;;;;8.32;2.60;;;;;;;20.84;75.57;99384.38;5066381;28;20074;-67
2021/08/10 07:57:13;;;;;;;5.20;2.20;;;;;;;20.57;76.72;99364.28;5066327;28;20016;-67
2021/08/10 07:59:39;;;;;;;5.10;2.47;;;;;;;20.51;77.94;99375.31;5066241;28;20017;-67
2021/08/10 08:02:04;;;;;;;7.07;3.00;;;;;;;20.10;77.11;99354.97;5066034;28;20044;-67
2021/08/10 08:04:30;;;;;;;9.50;2.95;;;;;;;20.11;78.18;99351.34;5066161;28;20017;-68
2021/08/10 08:06:55;;;;;;;5.63;2.35;;;;;;;20.35;76.64;99363.56;5066129;28;20021;-67
2021/08/10 08:09:20;;;;;;;6.47;2.58;;;;;;;20.47;75.27;99362.16;5065314;28;20316;-67
2021/08/10 08:11:46;;;;;;;6.85;2.63;;;;;;;20.49;77.83;99361.13;5064910;28;20092;-67
2021/08/10 08:14:12;;;;;;;4.30;2.03;;;;;;;20.46;76.51;99342.56;5064863;28;20281;-67
2021/08/10 08:16:37;;;;;;;5.00;2.35;;;;;;;20.56;77.31;99357.22;5065939;28;20316;-67
2021/08/10 08:19:03;;;;;;;5.85;2.40;;;;;;;20.47;77.09;99346.97;5065908;28;20028;-67
2021/08/10 08:21:28;;;;;;;8.40;2.50;;;;;;;20.46;77.75;99345.22;5065863;28;20055;-67
2021/08/10 08:23:54;;;;;;;8.20;2.60;;;;;;;20.44;76.52;99346.25;5065825;28;20239;-67
2021/08/10 08:26:21;;;;;;;5.95;2.38;;;;;;;20.58;76.36;99347.31;5065763;28;20063;-67
2021/08/10 08:28:46;;;;;;;7.28;2.47;;;;;;;20.70;76.29;99360.13;5065691;28;20029;-67
2021/08/10 08:31:12;;;;;;;7.72;2.58;;;;;;;20.71;75.54;99350.25;5064567;28;20027;-67
2021/08/10 08:33:37;;;;;;;5.43;2.47;;;;;;;20.71;75.60;99350.25;5064507;28;20366;-67
2021/08/10 08:36:03;;;;;;;8.00;2.75;;;;;;;20.80;75.13;99350.69;5065637;28;20016;-67
2021/08/10 08:38:29;;;;;;;5.80;2.50;;;;;;;21.02;76.05;99351.41;5065594;28;20107;-67
2021/08/10 08:40:54;;;;;;;4.85;2.40;;;;;;;21.32;74.50;99348.97;5065677;28;20347;-67
2021/08/10 08:43:22;;;;;;;11.60;2.85;;;;;;;21.66;71.67;99350.75;5065459;28;20020;-67
2021/08/10 08:45:47;;;;;;;8.52;2.28;;;;;;;22.30;70.15;99378.56;5065555;28;20017;-67
2021/08/10 08:48:15;;;;;;;6.10;2.67;;;;;;;23.20;66.96;99401.09;5065558;28;20016;-67
2021/08/10 08:50:43;;;;;;;6.95;2.70;;;;;;;24.07;65.33;99415.66;5065517;28;20234;-67
2021/08/10 08:53:12;;;;;;;5.82;2.38;;;;;;;24.72;61.51;99399.78;5065377;28;20016;-67
2021/08/10 08:55:41;;;;;;;5.18;2.00;;;;;;;24.75;60.56;99394.22;5065377;28;20312;-67
2021/08/10 08:58:06;;;;;;;7.13;2.45;;;;;;;25.21;60.27;99397.41;5064172;28;20016;-67
2021/08/10 09:00:31;;;;;;;7.53;2.70;;;;;;;25.68;60.28;99402.34;5063943;28;20957;-67
2021/08/10 09:02:57;;;;;;;10.85;2.40;;;;;;;26.61;54.10;99420.00;5065074;28;20021;-67
2021/08/10 09:05:22;;;;;;;5.20;2.10;;;;;;;27.04;55.66;99421.31;5065036;28;20039;-67
2021/08/10 09:07:48;;;;;;;6.90;2.25;;;;;;;26.81;54.75;99395.16;5064958;28;20254;-67
2021/08/10 09:10:17;;;;;;;8.45;2.42;;;;;;;27.75;54.35;99407.84;5064830;28;20025;-67
2021/08/10 09:12:52;;;;;;;9.57;2.47;;;;;;;27.35;52.31;99385.66;5064845;28;20020;-67
2021/08/10 09:15:44;;;;;;;3.78;2.10;;;;;;;26.00;57.11;99339.00;5064855;28;20024;-67
2021/08/10 09:18:22;;;;;;;8.13;2.25;;;;;;;25.70;56.91;99336.56;5064921;28;20020;-67
2021/08/10 09:21:02;;;;;;;8.85;2.30;;;;;;;26.17;56.25;99352.13;5064004;28;20017;-67
2021/08/10 09:23:46;;;;;;;9.10;2.38;;;;;;;25.78;58.39;99328.78;5064718;28;20312;-67
2021/08/10 09:26:15;;;;;;;7.25;2.17;;;;;;;26.62;53.69;99348.84;5064658;28;20314;-67
2021/08/10 09:28:40;;;;;;;5.75;2.17;;;;;;;26.06;55.71;99338.53;5064643;28;20021;-67
2021/08/10 09:31:29;;;;;;;5.20;2.00;;;;;;;26.39;57.52;99352.31;5064561;28;20036;-67
2021/08/10 09:33:56;;;;;;;7.85;2.67;;;;;;;26.77;55.82;99343.16;5064106;28;20036;-67
2021/08/10 09:36:22;;;;;;;6.18;2.47;;;;;;;26.75;53.01;99338.88;5064463;28;20212;-67
2021/08/10 09:38:48;;;;;;;5.47;1.98;;;;;;;27.10;53.74;99394.72;5064418;28;20147;-67
2021/08/10 09:41:17;;;;;;;6.63;2.20;;;;;;;27.42;50.38;99368.00;5064376;28;20017;-67
2021/08/10 09:43:43;;;;;;;4.22;2.15;;;;;;;26.64;52.69;99352.31;5064340;28;20020;-67
2021/08/10 09:46:15;;;;;;;6.38;2.15;;;;;;;26.28;52.92;99334.19;5064265;28;20028;-67
2021/08/10 09:48:50;;;;;;;6.55;2.22;;;;;;;26.15;52.86;99327.06;5064318;28;20044;-67
2021/08/10 09:51:17;;;;;;;6.93;2.33;;;;;;;26.18;54.37;99542.78;5064309;28;20056;-67
2021/08/10 09:53:58;;;;;;;4.60;1.67;;;;;;;25.77;56.33;99410.69;5064230;28;20043;-67
2021/08/10 09:56:58;;;;;;;8.85;2.03;;;;;;;26.04;54.34;99410.63;5064225;28;20025;-67
2021/08/10 09:59:38;;;;;;;5.45;2.13;;;;;;;26.30;53.20;99401.56;5064191;28;20063;-67
2021/08/10 10:02:24;;;;;;;3.75;1.70;;;;;;;26.39;54.47;99365.81;5063881;28;20104;-67
2021/08/10 10:04:53;;;;;;;5.43;2.03;;;;;;;26.25;54.04;99365.94;5064067;28;20025;-67
2021/08/10 10:07:19;;;;;;;5.82;1.98;;;;;;;26.37;49.89;99356.97;5063986;28;20021;-67
2021/08/10 10:09:45;;;;;;;7.93;2.10;;;;;;;26.44;51.98;99339.34;5063890;28;20021;-67
2021/08/10 10:12:11;;;;;;;10.70;2.40;;;;;;;25.92;51.74;99319.72;5063949;28;20219;-67
2021/08/10 10:14:38;;;;;;;5.82;1.95;;;;;;;26.30;55.13;99328.69;5063908;28;20031;-67
2021/08/10 10:17:05;;;;;;;8.77;1.85;;;;;;;26.64;51.93;99325.31;5063868;28;20021;-67
2021/08/10 10:19:35;;;;;;;10.88;2.33;;;;;;;26.92;52.22;99319.53;5063846;28;20016;-67
2021/08/10 10:22:03;;;;;;;7.20;1.90;;;;;;;26.87;52.73;99313.66;5063800;28;20029;-67
2021/08/10 10:24:35;;;;;;;7.50;2.50;;;;;;;25.99;50.69;99289.53;5063763;28;20017;-67
2021/08/10 10:27:03;;;;;;;7.63;2.20;;;;;;;26.60;50.20;99312.94;5063816;28;20084;-67
2021/08/10 10:29:29;;;;;;;7.47;2.67;;;;;;;26.96;48.04;99326.47;5063665;28;20085;-67
2021/08/10 10:31:55;;;;;;;4.90;2.50;;;;;;;27.10;47.29;99304.66;5063736;28;20025;-67
2021/08/10 10:34:22;;;;;;;5.72;2.50;;;;;;;27.27;49.67;99304.25;5067820;28;20029;-67
2021/08/10 10:36:49;;;;;;;6.95;2.58;;;;;;;26.88;50.73;99285.63;5067823;28;20254;-67
2021/08/10 10:39:25;;;;;;;6.13;2.60;;;;;;;26.64;51.33;99282.94;5067775;28;20021;-67
2021/08/10 10:41:53;;;;;;;5.35;2.80;;;;;;;26.62;51.03;99278.63;5067723;28;20021;-67
2021/08/10 10:44:37;;;;;;;8.75;2.88;;;;;;;26.42;51.21;99265.72;5067700;28;20248;-67
2021/08/10 10:47:31;;;;;;;5.47;2.55;;;;;;;26.58;49.08;99266.31;5067662;28;20029;-67
2021/08/10 10:49:56;;;;;;;6.53;2.60;;;;;;;26.96;52.40;99275.97;5067577;28;20061;-67
2021/08/10 10:52:26;;;;;;;5.43;2.58;;;;;;;27.30;52.11;99333.78;5067560;28;20025;-67
2021/08/10 10:54:52;;;;;;;7.25;2.65;;;;;;;26.98;49.58;99302.88;5067500;28;20025;-67
2021/08/10 10:57:36;;;;;;;8.80;2.60;;;;;;;27.64;48.60;99297.75;5066251;28;20016;-67
2021/08/10 11:00:07;;;;;;;5.45;2.78;;;;;;;27.23;48.80;99270.31;5067392;28;20240;-67
2021/08/10 11:02:34;;;;;;;5.47;2.85;;;;;;;26.60;48.15;99248.13;5067144;28;20049;-67
2021/08/10 11:05:06;;;;;;;6.78;3.15;;;;;;;26.53;49.55;99252.25;5067330;28;20044;-67
2021/08/10 11:07:47;;;;;;;6.10;2.92;;;;;;;26.46;50.26;99245.59;5067312;28;20021;-67
2021/08/10 11:10:40;;;;;;;4.72;2.53;;;;;;;26.56;48.42;99242.09;5065981;28;20070;-67
2021/08/10 11:13:21;;;;;;;7.88;2.70;;;;;;;26.24;47.88;99223.88;5067159;28;20080;-67
2021/08/10 11:15:46;;;;;;;6.53;2.55;;;;;;;26.34;48.37;99216.81;5065953;28;20031;-67
2021/08/10 11:18:11;;;;;;;6.95;2.92;;;;;;;26.93;48.10;99237.53;5067066;28;20029;-67
2021/08/10 11:20:41;;;;;;;5.75;2.58;;;;;;;27.67;50.99;99251.53;5067076;28;20263;-67
2021/08/10 11:23:25;;;;;;;6.88;2.60;;;;;;;28.15;47.29;99266.56;5065827;28;20028;-67
2021/08/10 11:25:52;;;;;;;11.30;3.10;;;;;;;27.88;49.74;99246.28;5067040;28;20108;-67
2021/08/10 11:28:31;;;;;;;6.53;2.40;;;;;;;27.70;50.23;99231.47;5066863;28;20358;-67
2021/08/10 11:30:58;;;;;;;5.72;2.88;;;;;;;27.57;50.87;99215.38;5065668;28;20260;-67
2021/08/10 11:33:31;;;;;;;8.18;2.72;;;;;;;27.26;49.87;99202.53;5066780;28;20025;-67
2021/08/10 11:36:12;;;;;;;5.65;2.72;;;;;;;27.57;50.88;99214.50;5066736;28;20048;-67
2021/08/10 11:38:37;;;;;;;7.22;2.60;;;;;;;27.93;49.18;99217.84;5066710;28;20088;-67